Davison, MI (48423)

3:04 AM EDT on July 07, 2015 (GMT -0400)
Burton - wxbeacon.com | | Change Station
CLOSE
Current Station
Personal Weather Station
Location: Burton, MI
Elevation: 766 ft
Nearby Weather Stations

Elev 766 ft 43.03 °N, 83.59 °W | Updated 3 minutes ago

Partly Cloudy
Partly Cloudy
76.8 °F
Feels Like 79 °F
N
2.0
Wind Variable Wind from SW
Gusts 3.0 mph

Today
High -- | Low -- °F
--% Chance of Precip.
Yesterday
High -- | Low -- °F
Precip. -- in
6:02 AM 9:15 PM
Waning Gibbous, 68% visible
Pressure 29.83 in
Visibility 7.0 miles
Clouds Scattered Clouds 7500 ft
Heat Index 79 °F
Dew Point 65 °F
Humidity 68%
Rainfall 0.00 in
Snow Depth Not available.
UV 0 out of 12
Pollen 4.70 out of 12
Air Quality Not available.
Flu Activity Not available.
METAR KFNT 070653Z AUTO 20009KT 7SM SCT075 26/18 A2985 RMK AO2 SLP101 T02560183

More Conditions Fewer Conditions

Pressure 29.83 in
Visibility 7.0 miles
Clouds Scattered Clouds 7500 ft
Heat Index 79 °F
Dew Point 65 °F
Humidity 68%
Rainfall 0.00 in
Snow Depth Not available.
UV 0 out of 12
Pollen 4.70 out of 12
Air Quality Not available.
Flu Activity Not available.
METAR KFNT 070653Z AUTO 20009KT 7SM SCT075 26/18 A2985 RMK AO2 SLP101 T02560183

More Conditions Fewer Conditions

10-Day Weather Forecast

×

Almanac

Astronomy

Jul. 07, 2015 Rise Set
Actual Time
Civil Twilight
Nautical Twilight
Astronomical Twilight
Moon
Length of Visible Light
Length of Day
Tomorrow will be .
, % of the Moon is Illuminated

Today's Extremes

State Highs State Lows

Community

WunderPhotos

Upload Photos

1,835,756 photos uploaded!

WunderBlogs® & News

Nearby

Air Quality

  Air Quality AQ Index Pollutant
Not available.

Snow Depth

Station Depth Elevation

Earthquake Activity

City Distance Mag. Time & Date
Minimum magnitude displayed is 2.5.

Coastal Water Temperatures

Place Temperature

Stations

Nearby Weather Stations

Station Location Temp. Windchill Dew Point Humidity Wind Precip. Elev Updated Type